Time;durP1;ratioP1;P1;durP2;ratioP2;P2;SDS_P1;SDS_P2;PMS_P1;PMS_P2;Temp;Humidity;BMP_temperature;BMP_pressure;BME280_temperature;BME280_humidity;BME280_pressure;Samples;Min_cycle;Max_cycle;Signal;HPM_P1;HPM_P2
2024/01/18 00:00:03;;;;;;;3.28;1.25;;;;;;;9.89;83.66;97542.59;3142825;22;20050;-74
2024/01/18 00:01:18;;;;;;;3.75;1.25;;;;;;;9.89;83.54;97539.16;3142617;22;20466;-74
2024/01/18 00:02:31;;;;;;;1.15;0.90;;;;;;;9.89;83.47;97545.19;3142102;22;20020;-74
2024/01/18 00:03:45;;;;;;;1.35;1.23;;;;;;;9.88;83.43;97540.88;3142649;22;20020;-74
2024/01/18 00:04:59;;;;;;;4.47;1.17;;;;;;;9.87;83.42;97538.38;3142772;22;20028;-74
2024/01/18 00:06:13;;;;;;;1.42;1.25;;;;;;;9.87;83.17;97554.84;3142290;22;20703;-74
2024/01/18 00:07:27;;;;;;;2.15;1.98;;;;;;;9.85;83.42;97541.06;3141952;22;20127;-74
2024/01/18 00:08:41;;;;;;;1.25;0.90;;;;;;;9.84;83.29;97549.81;3142713;22;20023;-74
2024/01/18 00:09:55;;;;;;;1.80;1.17;;;;;;;9.83;83.31;97537.69;3142538;22;20031;-74
2024/01/18 00:11:10;;;;;;;3.00;1.05;;;;;;;9.82;83.45;97543.84;3141838;22;20016;-74
2024/01/18 00:12:24;;;;;;;2.17;1.00;;;;;;;9.79;83.56;97557.88;3142502;23;20024;-73
2024/01/18 00:13:39;;;;;;;1.58;1.27;;;;;;;9.78;83.53;97547.53;3142693;22;20474;-74
2024/01/18 00:14:52;;;;;;;2.28;0.98;;;;;;;9.76;83.62;97563.25;3141477;22;20020;-74
2024/01/18 00:16:07;;;;;;;4.55;1.60;;;;;;;9.74;83.69;97566.88;3142190;22;20459;-74
2024/01/18 00:17:20;;;;;;;1.92;1.42;;;;;;;9.70;83.55;97562.75;3142094;22;20096;-74
2024/01/18 00:18:35;;;;;;;2.67;2.00;;;;;;;9.67;83.61;97571.56;3141974;22;20023;-74
2024/01/18 00:19:48;;;;;;;3.97;1.70;;;;;;;9.64;83.64;97570.91;3142374;22;20031;-74
2024/01/18 00:21:03;;;;;;;1.45;1.25;;;;;;;9.60;83.85;97578.88;3142444;22;20020;-74
2024/01/18 00:22:16;;;;;;;2.35;1.40;;;;;;;9.56;83.86;97579.94;3142450;22;20469;-73
2024/01/18 00:23:31;;;;;;;3.10;1.10;;;;;;;9.52;83.96;97586.22;3141928;22;20047;-74
2024/01/18 00:24:44;;;;;;;1.95;1.20;;;;;;;9.48;83.96;97589.94;3142266;22;20024;-74
2024/01/18 00:25:59;;;;;;;2.38;1.50;;;;;;;9.44;84.06;97598.81;3140428;22;20294;-74
2024/01/18 00:27:13;;;;;;;3.53;1.30;;;;;;;9.37;84.22;97593.13;3141628;22;20023;-73
2024/01/18 00:28:28;;;;;;;2.53;1.58;;;;;;;9.34;84.41;97592.41;3142172;22;20039;-73
2024/01/18 00:29:41;;;;;;;2.35;1.42;;;;;;;9.29;84.40;97604.81;3142270;22;20020;-73
2024/01/18 00:30:56;;;;;;;2.05;1.75;;;;;;;9.23;84.32;97611.19;3141159;22;20665;-73
2024/01/18 00:32:09;;;;;;;10.05;8.82;;;;;;;9.09;84.16;97618.88;3141305;22;20024;-73
2024/01/18 00:33:25;;;;;;;14.82;11.85;;;;;;;8.84;83.56;97622.72;3142090;23;20020;-73
2024/01/18 00:34:38;;;;;;;19.30;14.10;;;;;;;8.53;83.23;97620.78;3140960;22;20043;-73
2024/01/18 00:35:53;;;;;;;17.80;14.18;;;;;;;8.19;83.10;97622.38;3141901;23;20020;-73
2024/01/18 00:37:07;;;;;;;20.10;14.85;;;;;;;7.90;83.30;97636.75;3140617;23;20308;-73
2024/01/18 00:38:21;;;;;;;21.23;15.77;;;;;;;7.63;83.06;97626.69;3142415;23;20020;-73
2024/01/18 00:39:39;;;;;;;21.73;17.92;;;;;;;7.38;83.17;97634.75;3141636;22;20031;-73
2024/01/18 00:40:53;;;;;;;21.10;16.63;;;;;;;7.16;83.25;97639.16;3141961;22;20652;-73
2024/01/18 00:42:07;;;;;;;20.58;17.17;;;;;;;6.97;83.38;97634.78;3142214;23;20024;-74
2024/01/18 00:43:23;;;;;;;22.60;18.77;;;;;;;6.83;83.33;97629.31;3141515;22;20345;-74
2024/01/18 00:44:36;;;;;;;20.90;16.25;;;;;;;6.67;83.44;97646.41;3142118;23;20027;-73
2024/01/18 00:45:51;;;;;;;21.33;16.10;;;;;;;6.50;83.33;97644.50;3142032;23;20343;-73
2024/01/18 00:47:04;;;;;;;19.17;16.50;;;;;;;6.30;83.17;97650.50;3141239;22;20024;-73
2024/01/18 00:48:18;;;;;;;23.88;18.67;;;;;;;6.13;83.17;97652.88;3142027;23;20026;-73
2024/01/18 00:49:32;;;;;;;18.02;15.80;;;;;;;5.98;83.40;97659.50;3142134;23;20031;-73
2024/01/18 00:50:47;;;;;;;24.60;16.75;;;;;;;5.84;83.61;97660.00;3141335;22;20023;-74
2024/01/18 00:52:02;;;;;;;20.10;15.50;;;;;;;5.71;83.79;97659.59;3142012;23;20024;-73
2024/01/18 00:53:16;;;;;;;18.27;15.30;;;;;;;5.58;83.73;97654.03;3141776;23;20051;-73
2024/01/18 00:54:30;;;;;;;14.77;12.75;;;;;;;5.44;83.75;97662.28;3141828;22;20459;-73
2024/01/18 00:55:44;;;;;;;11.55;10.35;;;;;;;5.27;83.31;97654.28;3147233;23;20028;-73
2024/01/18 00:56:58;;;;;;;11.18;9.45;;;;;;;5.10;83.31;97659.19;3142162;23;20031;-73
2024/01/18 00:58:13;;;;;;;11.27;9.93;;;;;;;4.92;83.27;97668.44;3142321;22;20042;-73
2024/01/18 00:59:28;;;;;;;12.82;11.52;;;;;;;4.73;83.36;97674.22;3141522;22;20336;-74
2024/01/18 01:00:42;;;;;;;11.93;10.70;;;;;;;4.59;83.20;97679.84;3142040;22;20103;-73
2024/01/18 01:01:56;;;;;;;11.95;10.05;;;;;;;4.43;83.17;97668.28;3142011;23;20486;-73
2024/01/18 01:03:10;;;;;;;11.15;9.95;;;;;;;4.28;83.34;97672.19;3141515;22;20041;-73
2024/01/18 01:04:24;;;;;;;10.55;9.32;;;;;;;4.11;83.19;97670.13;3142227;22;20031;-73
2024/01/18 01:05:38;;;;;;;14.15;11.13;;;;;;;3.93;83.23;97674.13;3142180;22;20013;-73
2024/01/18 01:06:51;;;;;;;13.93;11.93;;;;;;;3.83;83.68;97679.59;3141098;22;20625;-73
2024/01/18 01:08:06;;;;;;;15.35;13.05;;;;;;;3.78;83.79;97677.13;3142183;23;20028;-73
2024/01/18 01:09:20;;;;;;;15.90;12.82;;;;;;;3.72;83.97;97677.34;3141951;23;20051;-73
2024/01/18 01:10:34;;;;;;;17.63;14.20;;;;;;;3.66;83.95;97673.16;3141456;22;20020;-73
2024/01/18 01:11:47;;;;;;;16.23;13.75;;;;;;;3.56;84.00;97679.47;3141827;23;20031;-73
2024/01/18 01:13:02;;;;;;;19.63;16.95;;;;;;;3.50;84.01;97693.38;3141976;23;20020;-73
2024/01/18 01:14:16;;;;;;;23.05;16.23;;;;;;;3.43;84.14;97691.88;3142124;23;20020;-73
2024/01/18 01:15:32;;;;;;;17.75;12.05;;;;;;;3.40;84.09;97691.94;3141277;22;20442;-73
2024/01/18 01:16:45;;;;;;;17.13;12.93;;;;;;;3.32;84.25;97691.31;3141961;23;20028;-72
2024/01/18 01:17:59;;;;;;;20.23;14.07;;;;;;;3.22;84.06;97702.75;3142072;23;20020;-72
2024/01/18 01:19:13;;;;;;;17.50;12.80;;;;;;;3.10;84.13;97693.63;3141450;22;20324;-72
2024/01/18 01:20:27;;;;;;;20.92;13.75;;;;;;;3.04;84.33;97712.66;3141869;23;20026;-72
2024/01/18 01:21:41;;;;;;;20.38;15.43;;;;;;;3.00;84.31;97712.78;3141845;22;20020;-72
2024/01/18 01:22:56;;;;;;;18.05;13.05;;;;;;;2.95;84.37;97730.94;3141674;22;20026;-72
2024/01/18 01:24:09;;;;;;;17.30;14.02;;;;;;;2.90;84.59;97729.34;3145307;23;20059;-72
2024/01/18 01:25:24;;;;;;;20.60;13.23;;;;;;;2.82;84.53;97732.97;3146342;23;20024;-72
2024/01/18 01:26:37;;;;;;;18.27;12.57;;;;;;;2.77;84.58;97739.94;3141395;22;20019;-72
2024/01/18 01:27:52;;;;;;;13.73;12.02;;;;;;;2.73;84.84;97746.03;3142029;23;20024;-73
2024/01/18 01:29:07;;;;;;;14.52;11.20;;;;;;;2.69;84.82;97743.59;3142143;23;20028;-72
2024/01/18 01:30:22;;;;;;;16.60;12.43;;;;;;;2.65;84.93;97745.38;3142250;23;20025;-72
2024/01/18 01:31:37;;;;;;;12.75;9.43;;;;;;;2.59;84.82;97748.94;3141089;22;20027;-72
2024/01/18 01:32:51;;;;;;;12.80;11.48;;;;;;;2.52;84.90;97733.69;3142002;22;20054;-72
2024/01/18 01:34:04;;;;;;;14.10;11.10;;;;;;;2.44;84.85;97723.56;3142272;23;20028;-72
2024/01/18 01:35:19;;;;;;;20.20;11.15;;;;;;;2.39;85.07;97751.97;3141387;22;20020;-72
2024/01/18 01:36:32;;;;;;;17.50;12.95;;;;;;;2.36;85.08;97752.03;3141762;23;20801;-73
2024/01/18 01:37:47;;;;;;;15.60;11.10;;;;;;;2.33;85.12;97736.69;3142046;23;20020;-73
2024/01/18 01:39:00;;;;;;;18.35;12.50;;;;;;;2.30;85.26;97739.31;3141720;22;20017;-72
2024/01/18 01:40:15;;;;;;;15.75;11.27;;;;;;;2.28;85.23;97745.38;3142208;23;20028;-72
2024/01/18 01:41:28;;;;;;;15.55;12.23;;;;;;;2.28;85.43;97743.66;3142161;22;20024;-72
2024/01/18 01:42:42;;;;;;;16.75;14.00;;;;;;;2.28;85.48;97755.69;3141581;22;20672;-72
2024/01/18 01:43:57;;;;;;;14.07;10.48;;;;;;;2.27;85.54;97739.41;3142070;23;20032;-72
2024/01/18 01:45:11;;;;;;;15.95;12.45;;;;;;;2.27;85.56;97747.13;3142140;23;20109;-72
2024/01/18 01:46:25;;;;;;;13.18;10.55;;;;;;;2.24;85.59;97748.91;3141841;23;20028;-72
2024/01/18 01:47:40;;;;;;;18.00;11.10;;;;;;;2.23;85.70;97755.78;3141951;23;20083;-72
2024/01/18 01:48:56;;;;;;;15.23;11.98;;;;;;;2.22;85.79;97745.50;3142391;23;20029;-73
2024/01/18 01:50:12;;;;;;;13.23;9.82;;;;;;;2.21;85.93;97747.22;3141436;23;20082;-73
2024/01/18 01:51:26;;;;;;;15.23;10.65;;;;;;;2.17;85.83;97751.63;3141237;22;20438;-72
2024/01/18 01:52:42;;;;;;;13.82;11.43;;;;;;;2.17;85.92;97754.19;3142004;23;20023;-73
2024/01/18 01:53:56;;;;;;;13.07;10.35;;;;;;;2.14;85.88;97751.69;3142262;23;20028;-72
2024/01/18 01:55:12;;;;;;;12.45;8.90;;;;;;;2.11;86.11;97761.16;3141373;22;20016;-73
2024/01/18 01:56:26;;;;;;;12.77;10.18;;;;;;;2.07;85.74;97744.13;3141260;22;20097;-72
2024/01/18 01:57:40;;;;;;;14.98;10.68;;;;;;;2.03;85.87;97763.06;3142145;23;20020;-72
2024/01/18 01:58:54;;;;;;;14.90;10.35;;;;;;;2.00;86.00;97766.53;3141638;22;20031;-72
2024/01/18 02:00:10;;;;;;;11.40;9.02;;;;;;;1.97;85.98;97753.75;3141965;23;20020;-72
2024/01/18 02:01:25;;;;;;;11.35;8.52;;;;;;;1.94;85.99;97757.25;3142167;22;20024;-72
2024/01/18 02:02:42;;;;;;;14.25;9.60;;;;;;;1.91;86.08;97764.16;3141384;22;20020;-72
2024/01/18 02:03:55;;;;;;;10.52;8.48;;;;;;;1.89;86.11;97755.63;3141928;22;20321;-72
2024/01/18 02:05:10;;;;;;;13.45;10.25;;;;;;;1.87;86.12;97767.69;3142247;22;20138;-72
2024/01/18 02:06:24;;;;;;;11.68;8.90;;;;;;;1.87;86.34;97777.97;3141631;23;20070;-72
2024/01/18 02:07:38;;;;;;;12.40;9.48;;;;;;;1.88;86.27;97785.63;3141475;22;20513;-72
2024/01/18 02:08:52;;;;;;;12.30;9.30;;;;;;;1.88;86.32;97774.50;3141910;22;20024;-72
2024/01/18 02:10:07;;;;;;;10.27;9.07;;;;;;;1.83;86.15;97787.44;3141677;22;20811;-72
2024/01/18 02:11:21;;;;;;;11.45;9.55;;;;;;;1.81;86.33;97798.63;3141463;22;20455;-71
2024/01/18 02:12:36;;;;;;;13.48;9.98;;;;;;;1.82;86.26;97774.63;3142140;22;20032;-72
2024/01/18 02:13:50;;;;;;;13.40;8.82;;;;;;;1.79;86.42;97767.00;3141793;22;20020;-72
2024/01/18 02:15:05;;;;;;;11.00;9.63;;;;;;;1.72;86.24;97759.38;3141401;22;20020;-72
2024/01/18 02:16:19;;;;;;;12.80;8.18;;;;;;;1.66;86.26;97754.38;3141917;22;20091;-72
2024/01/18 02:17:33;;;;;;;8.95;7.53;;;;;;;1.59;86.21;97755.34;3142065;22;20471;-72
2024/01/18 02:18:48;;;;;;;11.70;8.68;;;;;;;1.52;86.21;97761.47;3141361;22;20300;-72
2024/01/18 02:20:04;;;;;;;11.07;8.20;;;;;;;1.49;86.22;97771.81;3142133;22;20085;-72
2024/01/18 02:21:18;;;;;;;14.77;9.93;;;;;;;1.47;86.41;97769.31;3141478;22;20027;-72
2024/01/18 02:22:33;;;;;;;9.75;8.70;;;;;;;1.49;86.49;97776.97;3141352;22;20526;-72
2024/01/18 02:23:49;;;;;;;12.55;8.80;;;;;;;1.48;86.36;97772.72;3142038;22;20020;-72
2024/01/18 02:25:18;;;;;;;9.80;8.07;;;;;;;1.46;86.38;97765.00;3141943;22;20355;-72
2024/01/18 02:26:32;;;;;;;7.97;6.43;;;;;;;1.42;86.46;97767.66;3141240;22;20020;-72
2024/01/18 02:27:46;;;;;;;8.48;7.53;;;;;;;1.36;86.29;97773.75;3141895;22;20024;-72
2024/01/18 02:29:00;;;;;;;10.30;8.10;;;;;;;1.34;86.53;97757.53;3141246;22;20028;-71
2024/01/18 02:30:14;;;;;;;11.63;8.30;;;;;;;1.33;86.56;97749.84;3142010;22;20020;-72
2024/01/18 02:31:28;;;;;;;8.93;6.63;;;;;;;1.30;86.59;97761.88;3141214;22;20024;-72
2024/01/18 02:32:42;;;;;;;8.65;7.75;;;;;;;1.30;86.70;97779.88;3141985;22;20391;-72
2024/01/18 02:33:56;;;;;;;9.85;8.07;;;;;;;1.29;86.67;97773.03;3142019;22;20048;-72
2024/01/18 02:35:10;;;;;;;13.05;8.07;;;;;;;1.30;86.67;97782.44;3141201;22;20016;-72
2024/01/18 02:36:24;;;;;;;10.98;8.38;;;;;;;1.34;86.80;97790.94;3141448;22;20016;-72
2024/01/18 02:37:38;;;;;;;10.57;8.13;;;;;;;1.37;87.02;97787.47;3142171;22;20034;-72
2024/01/18 02:38:52;;;;;;;9.30;7.07;;;;;;;1.40;86.98;97795.13;3141606;22;20036;-72
2024/01/18 02:40:07;;;;;;;11.60;8.52;;;;;;;1.40;87.00;97790.00;3141979;22;20470;-72
2024/01/18 02:41:22;;;;;;;10.32;8.75;;;;;;;1.41;87.04;97786.53;3142855;22;20023;-72
2024/01/18 02:42:37;;;;;;;12.82;9.55;;;;;;;1.40;86.95;97785.69;3142371;22;20024;-72
2024/01/18 02:43:50;;;;;;;11.05;7.93;;;;;;;1.41;86.92;97799.38;3147378;23;20119;-72
2024/01/18 02:45:06;;;;;;;10.82;8.45;;;;;;;1.43;87.11;97793.34;3142266;22;20020;-72
2024/01/18 02:46:19;;;;;;;13.05;8.23;;;;;;;1.45;87.19;97783.88;3142382;22;20028;-72
2024/01/18 02:47:35;;;;;;;9.80;8.40;;;;;;;1.46;87.20;97779.59;3142206;22;20016;-72
2024/01/18 02:48:48;;;;;;;10.95;8.57;;;;;;;1.45;87.12;97783.88;3142747;22;20355;-72
2024/01/18 02:50:03;;;;;;;15.90;9.65;;;;;;;1.46;87.20;97774.44;3142631;22;20020;-72
2024/01/18 02:51:16;;;;;;;11.05;8.43;;;;;;;1.46;87.37;97787.31;3141856;22;20020;-72
2024/01/18 02:52:32;;;;;;;12.00;8.60;;;;;;;1.47;87.33;97782.16;3142516;22;20354;-72
2024/01/18 02:53:46;;;;;;;10.55;8.85;;;;;;;1.48;87.14;97785.56;3142490;22;20043;-72
2024/01/18 02:55:00;;;;;;;12.05;8.88;;;;;;;1.48;87.21;97788.13;3142235;22;20030;-72
2024/01/18 02:56:14;;;;;;;11.38;8.93;;;;;;;1.50;87.48;97778.69;3142382;22;20017;-72
2024/01/18 02:57:29;;;;;;;10.38;8.63;;;;;;;1.48;87.30;97775.28;3142884;22;20058;-72
2024/01/18 02:58:43;;;;;;;13.60;8.63;;;;;;;1.46;87.22;97782.16;3142076;22;20016;-72
2024/01/18 02:59:57;;;;;;;8.07;6.28;;;;;;;1.40;87.21;97783.13;3142603;22;20031;-72
2024/01/18 03:01:11;;;;;;;12.18;8.25;;;;;;;1.36;87.35;97780.63;3142219;22;20387;-72
2024/01/18 03:02:25;;;;;;;9.27;7.45;;;;;;;1.33;87.40;97780.69;3142344;22;20095;-72
2024/01/18 03:03:39;;;;;;;8.80;7.80;;;;;;;1.30;87.37;97784.16;3141786;22;20020;-72
2024/01/18 03:04:53;;;;;;;10.00;6.95;;;;;;;1.27;87.32;97782.50;3142551;22;20330;-72
2024/01/18 03:06:06;;;;;;;10.30;8.05;;;;;;;1.26;87.31;97770.50;3142288;22;20020;-72
2024/01/18 03:07:21;;;;;;;13.35;8.90;;;;;;;1.26;87.43;97778.22;3142116;22;20502;-72
2024/01/18 03:08:36;;;;;;;12.55;8.65;;;;;;;1.23;87.47;97788.53;3142684;22;20024;-72
2024/01/18 03:09:50;;;;;;;11.55;9.10;;;;;;;1.20;87.31;97767.22;3142958;22;20020;-72
2024/01/18 03:11:04;;;;;;;11.57;7.53;;;;;;;1.16;87.19;97763.88;3142075;22;20031;-72
2024/01/18 03:12:18;;;;;;;11.85;8.63;;;;;;;1.12;87.30;97779.34;3142920;22;20020;-73
2024/01/18 03:13:33;;;;;;;9.45;8.23;;;;;;;1.11;87.26;97786.22;3142833;22;20110;-72
2024/01/18 03:14:47;;;;;;;11.90;9.80;;;;;;;1.11;87.30;97780.19;3142162;22;20100;-72
2024/01/18 03:16:01;;;;;;;13.00;9.45;;;;;;;1.12;87.41;97787.06;3142275;22;20039;-72
2024/01/18 03:17:15;;;;;;;13.80;9.25;;;;;;;1.12;87.52;97805.03;3142597;22;20020;-72
2024/01/18 03:18:29;;;;;;;13.90;10.05;;;;;;;1.10;87.53;97797.34;3141795;22;20020;-72
2024/01/18 03:19:43;;;;;;;13.43;10.43;;;;;;;1.08;87.40;97799.94;3142634;23;20026;-72
2024/01/18 03:20:56;;;;;;;15.32;9.95;;;;;;;1.08;87.58;97796.50;3142113;22;20024;-72
2024/01/18 03:22:11;;;;;;;15.45;10.05;;;;;;;1.06;87.54;97794.00;3142645;22;20020;-72
2024/01/18 03:23:24;;;;;;;20.92;11.52;;;;;;;1.07;87.60;97805.09;3141555;22;20016;-72
2024/01/18 03:24:39;;;;;;;17.05;12.02;;;;;;;1.06;87.64;97806.81;3142642;23;20721;-72
2024/01/18 03:25:52;;;;;;;13.98;11.02;;;;;;;1.05;87.56;97796.56;3142625;23;20024;-72
2024/01/18 03:27:06;;;;;;;15.90;13.10;;;;;;;1.01;87.60;97787.22;3141799;22;20489;-72
2024/01/18 03:28:20;;;;;;;15.77;9.85;;;;;;;0.96;87.48;97782.16;3142794;23;20436;-72
2024/01/18 03:29:36;;;;;;;24.48;13.73;;;;;;;0.90;87.54;97782.25;3142799;22;20020;-72
2024/01/18 03:30:49;;;;;;;17.35;12.75;;;;;;;0.89;87.36;97790.00;3141893;22;20016;-72
2024/01/18 03:32:04;;;;;;;21.23;13.57;;;;;;;0.89;87.32;97784.84;3142614;23;20383;-72
2024/01/18 03:33:17;;;;;;;19.00;12.93;;;;;;;0.89;87.62;97774.59;3142313;23;20024;-72
2024/01/18 03:34:32;;;;;;;21.48;13.65;;;;;;;0.87;87.51;97777.16;3142036;22;20020;-72
2024/01/18 03:35:45;;;;;;;17.60;14.00;;;;;;;0.89;87.65;97787.41;3142271;23;20020;-72
2024/01/18 03:37:00;;;;;;;21.02;14.30;;;;;;;0.92;87.71;97787.38;3142307;23;20527;-72
2024/01/18 03:38:13;;;;;;;19.65;13.77;;;;;;;0.92;87.65;97785.63;3142687;23;20035;-72
2024/01/18 03:39:28;;;;;;;21.27;12.60;;;;;;;0.92;87.68;97785.63;3142031;22;20026;-72
2024/01/18 03:40:41;;;;;;;25.83;16.08;;;;;;;0.92;87.65;97790.78;3142165;22;20027;-73
2024/01/18 03:41:56;;;;;;;20.45;14.48;;;;;;;0.93;87.78;97784.78;3142179;22;20046;-72
2024/01/18 03:43:09;;;;;;;22.48;15.45;;;;;;;0.94;87.61;97775.34;3142113;22;20019;-72
2024/01/18 03:44:23;;;;;;;22.50;16.63;;;;;;;0.94;87.79;97772.78;3142708;23;20020;-72
2024/01/18 03:45:38;;;;;;;18.58;13.38;;;;;;;0.94;87.93;97772.78;3142352;23;20367;-72
2024/01/18 03:46:53;;;;;;;19.92;15.27;;;;;;;0.93;87.72;97771.94;3141456;22;20040;-72
2024/01/18 03:48:06;;;;;;;20.33;15.05;;;;;;;0.94;87.77;97789.03;3142141;23;20104;-72
2024/01/18 03:49:21;;;;;;;21.55;16.00;;;;;;;0.95;87.74;97777.03;3142337;23;20027;-72
2024/01/18 03:50:34;;;;;;;24.48;17.52;;;;;;;0.99;88.01;97776.97;3141884;22;20027;-72
2024/01/18 03:51:49;;;;;;;27.05;15.95;;;;;;;1.01;87.83;97776.97;3142862;23;20326;-73
2024/01/18 03:53:03;;;;;;;21.83;16.60;;;;;;;1.02;87.92;97774.34;3143158;23;20043;-72
2024/01/18 03:54:17;;;;;;;24.02;15.50;;;;;;;1.02;87.89;97771.78;3143035;23;20046;-72
2024/01/18 03:55:30;;;;;;;24.27;14.68;;;;;;;1.01;87.97;97769.25;3142112;22;20016;-72
2024/01/18 03:56:45;;;;;;;24.38;15.73;;;;;;;1.02;87.85;97776.06;3142351;23;20026;-72
2024/01/18 03:57:58;;;;;;;23.33;15.73;;;;;;;1.00;87.91;97775.25;3142727;23;20024;-72
2024/01/18 03:59:14;;;;;;;26.90;16.88;;;;;;;1.02;87.92;97770.94;3141760;22;20020;-72
2024/01/18 04:00:27;;;;;;;24.25;16.50;;;;;;;1.00;88.00;97759.84;3141742;23;20478;-72
2024/01/18 04:01:43;;;;;;;26.88;17.50;;;;;;;0.99;87.93;97766.69;3142525;22;20020;-72
2024/01/18 04:02:57;;;;;;;22.63;14.80;;;;;;;0.99;88.05;97760.72;3141893;22;20026;-72
2024/01/18 04:04:11;;;;;;;25.08;16.05;;;;;;;0.96;87.86;97758.22;3142493;23;20078;-72
2024/01/18 04:05:24;;;;;;;23.13;15.38;;;;;;;0.96;88.01;97750.50;3142309;23;20043;-72
2024/01/18 04:06:39;;;;;;;27.15;17.05;;;;;;;0.95;87.90;97756.50;3141423;22;20443;-72
2024/01/18 04:07:52;;;;;;;26.38;16.77;;;;;;;0.98;87.93;97764.16;3142332;23;20024;-72
2024/01/18 04:09:08;;;;;;;23.80;15.88;;;;;;;1.00;88.11;97776.09;3142491;23;20024;-72
2024/01/18 04:10:22;;;;;;;30.17;17.83;;;;;;;1.01;88.05;97762.41;3142261;23;20024;-72
2024/01/18 04:11:36;;;;;;;23.35;15.27;;;;;;;1.02;88.19;97756.38;3141494;22;20016;-73
2024/01/18 04:12:50;;;;;;;30.08;16.80;;;;;;;1.01;88.23;97766.69;3142448;23;20024;-72
2024/01/18 04:14:04;;;;;;;25.67;16.83;;;;;;;0.98;87.90;97772.72;3142279;23;20450;-73
2024/01/18 04:15:18;;;;;;;27.15;16.83;;;;;;;0.97;88.00;97780.44;3141586;22;20031;-73
2024/01/18 04:16:33;;;;;;;26.80;18.40;;;;;;;0.98;87.94;97785.56;3141648;23;20042;-73
2024/01/18 04:17:48;;;;;;;27.00;16.67;;;;;;;0.98;88.17;97777.84;3141617;23;20129;-72
2024/01/18 04:19:02;;;;;;;29.17;17.85;;;;;;;0.99;88.03;97774.41;3141817;22;20020;-72
2024/01/18 04:20:21;;;;;;;31.13;18.27;;;;;;;0.99;88.12;97781.28;3142303;23;20352;-72
2024/01/18 04:21:36;;;;;;;31.55;18.83;;;;;;;0.98;88.00;97779.56;3141874;22;20021;-73
2024/01/18 04:22:49;;;;;;;30.77;17.42;;;;;;;0.97;87.95;97776.16;3141622;22;20463;-73
2024/01/18 04:24:04;;;;;;;30.98;19.67;;;;;;;0.98;88.17;97782.13;3141984;23;20020;-73
2024/01/18 04:25:18;;;;;;;32.53;17.77;;;;;;;0.96;88.12;97783.88;3142233;23;20332;-73
2024/01/18 04:26:34;;;;;;;29.55;16.88;;;;;;;0.93;88.02;97779.66;3141363;22;20103;-73
2024/01/18 04:27:47;;;;;;;26.70;16.95;;;;;;;0.91;87.97;97789.09;3142520;23;20027;-74
2024/01/18 04:29:02;;;;;;;29.23;17.70;;;;;;;0.89;88.01;97784.84;3142649;23;20415;-73
2024/01/18 04:30:15;;;;;;;29.58;18.02;;;;;;;0.89;88.04;97790.84;3142396;23;20020;-73
2024/01/18 04:31:30;;;;;;;27.77;16.02;;;;;;;0.87;87.95;97788.28;3141662;22;20394;-73
2024/01/18 04:32:43;;;;;;;32.30;17.42;;;;;;;0.85;88.16;97795.19;3141849;23;20114;-73
2024/01/18 04:33:59;;;;;;;22.73;15.48;;;;;;;0.82;87.90;97791.78;3142042;23;20024;-73
2024/01/18 04:35:13;;;;;;;24.98;15.20;;;;;;;0.80;87.85;97791.84;3141731;22;20020;-73
2024/01/18 04:36:27;;;;;;;31.27;17.50;;;;;;;0.79;88.21;97794.41;3141146;23;20046;-72
2024/01/18 04:37:42;;;;;;;27.63;16.40;;;;;;;0.79;87.96;97802.13;3141727;23;20051;-73
2024/01/18 04:38:56;;;;;;;35.28;18.10;;;;;;;0.79;88.15;97805.53;3141710;22;20023;-73
2024/01/18 04:40:10;;;;;;;32.00;18.88;;;;;;;0.80;88.34;97804.66;3142227;23;20506;-73
2024/01/18 04:41:25;;;;;;;35.42;18.63;;;;;;;0.80;88.17;97812.38;3142064;22;20020;-73
2024/01/18 04:42:38;;;;;;;32.60;18.80;;;;;;;0.81;88.36;97816.63;3141714;22;20069;-73
2024/01/18 04:43:53;;;;;;;32.03;19.70;;;;;;;0.82;88.22;97826.00;3142086;23;20028;-73
2024/01/18 04:45:07;;;;;;;28.80;18.48;;;;;;;0.84;88.20;97828.56;3142226;23;20035;-73
2024/01/18 04:46:22;;;;;;;35.65;18.85;;;;;;;0.85;88.14;97819.97;3142107;23;20020;-73
2024/01/18 04:47:36;;;;;;;31.60;17.20;;;;;;;0.85;88.33;97825.13;3141554;22;20016;-73
2024/01/18 04:48:51;;;;;;;30.63;19.52;;;;;;;0.83;88.34;97832.84;3141985;23;20074;-73
2024/01/18 04:50:08;;;;;;;30.70;18.65;;;;;;;0.84;88.37;97846.53;3142080;23;20028;-73
2024/01/18 04:51:22;;;;;;;32.67;19.08;;;;;;;0.86;88.41;97862.78;3141384;22;20426;-73
2024/01/18 04:52:35;;;;;;;30.80;18.30;;;;;;;0.85;88.44;97855.94;3141801;23;20031;-73
2024/01/18 04:53:50;;;;;;;34.03;18.52;;;;;;;0.85;88.34;97855.94;3142020;23;20020;-73
2024/01/18 04:55:04;;;;;;;26.23;17.63;;;;;;;0.83;88.25;97848.25;3141410;22;20355;-73
2024/01/18 04:56:19;;;;;;;33.38;17.75;;;;;;;0.81;88.17;97837.16;3141449;23;20091;-73
2024/01/18 04:57:33;;;;;;;29.20;18.60;;;;;;;0.79;88.33;97840.63;3142192;23;20020;-73
2024/01/18 04:58:47;;;;;;;26.95;17.67;;;;;;;0.75;88.30;97839.84;3141580;22;20035;-72
2024/01/18 05:00:01;;;;;;;26.80;15.30;;;;;;;0.72;88.11;97839.84;3142387;23;20024;-72
2024/01/18 05:01:15;;;;;;;22.48;13.35;;;;;;;0.69;88.30;97845.03;3142103;22;20020;-73
2024/01/18 05:02:29;;;;;;;24.17;14.55;;;;;;;0.66;88.20;97852.78;3141629;22;20031;-72
2024/01/18 05:03:43;;;;;;;29.67;17.15;;;;;;;0.63;88.13;97847.69;3141888;23;20346;-75
2024/01/18 05:04:57;;;;;;;26.88;15.90;;;;;;;0.61;88.19;97846.88;3142459;23;20032;-72
2024/01/18 05:06:13;;;;;;;22.77;15.32;;;;;;;0.57;88.38;97848.63;3141671;23;20101;-74
2024/01/18 05:07:27;;;;;;;24.00;14.85;;;;;;;0.55;88.04;97841.81;3140988;22;20016;-73
2024/01/18 05:08:41;;;;;;;24.38;15.30;;;;;;;0.51;88.22;97841.00;3142206;23;20020;-74
2024/01/18 05:09:55;;;;;;;26.85;15.75;;;;;;;0.48;88.20;97850.47;3142108;23;20024;-74
2024/01/18 05:11:09;;;;;;;22.77;14.18;;;;;;;0.48;88.33;97846.19;3141327;22;20467;-74
2024/01/18 05:12:23;;;;;;;30.38;16.10;;;;;;;0.47;88.14;97847.06;3141788;23;20021;-75
2024/01/18 05:13:37;;;;;;;27.20;17.25;;;;;;;0.44;88.15;97839.41;3142152;23;20365;-74
2024/01/18 05:14:51;;;;;;;25.60;15.77;;;;;;;0.40;88.33;97841.16;3141456;22;20463;-74
2024/01/18 05:16:06;;;;;;;27.45;16.58;;;;;;;0.39;88.24;97857.41;3141990;23;20027;-74
2024/01/18 05:17:21;;;;;;;28.38;15.95;;;;;;;0.38;88.08;97848.00;3142103;23;20016;-74
2024/01/18 05:18:36;;;;;;;30.85;17.67;;;;;;;0.40;88.44;97848.00;3141468;22;20020;-74
2024/01/18 05:19:49;;;;;;;28.00;18.38;;;;;;;0.42;88.23;97843.69;3142201;23;20024;-74
2024/01/18 05:21:04;;;;;;;27.08;17.05;;;;;;;0.42;88.18;97847.13;3142004;22;20074;-74
2024/01/18 05:22:19;;;;;;;24.77;16.27;;;;;;;0.43;88.38;97846.22;3142447;23;20031;-74
2024/01/18 05:23:34;;;;;;;35.42;18.65;;;;;;;0.43;88.35;97841.09;3141586;22;20051;-74
2024/01/18 05:24:47;;;;;;;28.48;17.60;;;;;;;0.43;88.35;97846.22;3142200;23;20024;-74
2024/01/18 05:26:01;;;;;;;28.38;17.52;;;;;;;0.41;88.31;97842.88;3141494;23;20024;-74
2024/01/18 05:27:15;;;;;;;36.65;19.00;;;;;;;0.40;88.30;97845.44;3141113;22;20459;-75
2024/01/18 05:28:29;;;;;;;27.38;16.52;;;;;;;0.37;88.26;97842.91;3141735;23;20021;-74
2024/01/18 05:29:43;;;;;;;31.15;18.60;;;;;;;0.35;88.22;97840.34;3142014;23;20031;-74
2024/01/18 05:30:57;;;;;;;31.42;18.23;;;;;;;0.32;88.21;97839.56;3141412;22;20358;-75
2024/01/18 05:32:11;;;;;;;30.85;16.73;;;;;;;0.31;88.25;97843.84;3141725;23;20033;-74
2024/01/18 05:33:25;;;;;;;26.85;18.42;;;;;;;0.30;88.23;97834.44;3142004;23;20028;-74
2024/01/18 05:34:40;;;;;;;33.75;18.42;;;;;;;0.29;88.21;97830.19;3141369;22;20020;-74
2024/01/18 05:35:54;;;;;;;26.55;18.00;;;;;;;0.29;88.48;97835.31;3142134;23;20021;-74
2024/01/18 05:37:08;;;;;;;29.25;14.75;;;;;;;0.27;88.25;97824.22;3141504;23;20495;-74
2024/01/18 05:38:23;;;;;;;28.27;16.02;;;;;;;0.24;88.32;97816.56;3142043;23;20074;-74
2024/01/18 05:39:37;;;;;;;33.42;18.80;;;;;;;0.21;88.33;97822.59;3141704;22;20024;-74
2024/01/18 05:40:51;;;;;;;29.13;15.00;;;;;;;0.21;88.43;97824.31;3141846;22;20091;-74
2024/01/18 05:42:05;;;;;;;32.45;17.88;;;;;;;0.19;88.30;97820.91;3141785;23;20352;-74
2024/01/18 05:43:19;;;;;;;30.35;16.52;;;;;;;0.18;88.44;97827.75;3141249;22;20020;-74
2024/01/18 05:44:33;;;;;;;30.45;16.73;;;;;;;0.17;88.33;97812.38;3141756;23;20038;-74
2024/01/18 05:45:47;;;;;;;28.05;17.23;;;;;;;0.18;88.38;97814.06;3142048;22;20028;-74
2024/01/18 05:47:01;;;;;;;28.90;17.70;;;;;;;0.16;88.58;97814.09;3141264;22;20020;-74